sensor_id;sensor_type;location;lat;lon;timestamp;P1;durP1;ratioP1;P2;durP2;ratioP2
51382;SDS011;37475;43.358;1.248;2024-02-28T00:01:26;10.15;;;3.22;;
51382;SDS011;37475;43.358;1.248;2024-02-28T00:03:54;12.07;;;3.17;;
51382;SDS011;37475;43.358;1.248;2024-02-28T00:06:20;11.27;;;3.28;;
51382;SDS011;37475;43.358;1.248;2024-02-28T00:08:47;12.52;;;3.40;;
51382;SDS011;37475;43.358;1.248;2024-02-28T00:11:15;10.50;;;3.10;;
51382;SDS011;37475;43.358;1.248;2024-02-28T00:13:42;9.23;;;2.53;;
51382;SDS011;37475;43.358;1.248;2024-02-28T00:16:09;11.82;;;3.10;;
51382;SDS011;37475;43.358;1.248;2024-02-28T00:18:36;8.15;;;2.70;;
51382;SDS011;37475;43.358;1.248;2024-02-28T00:21:05;11.48;;;3.30;;
51382;SDS011;37475;43.358;1.248;2024-02-28T00:23:31;15.25;;;4.35;;
51382;SDS011;37475;43.358;1.248;2024-02-28T00:25:58;12.10;;;3.05;;
51382;SDS011;37475;43.358;1.248;2024-02-28T00:28:26;8.30;;;2.95;;
51382;SDS011;37475;43.358;1.248;2024-02-28T00:30:53;16.10;;;3.47;;
51382;SDS011;37475;43.358;1.248;2024-02-28T00:33:20;10.45;;;3.00;;
51382;SDS011;37475;43.358;1.248;2024-02-28T00:35:46;13.25;;;3.13;;
51382;SDS011;37475;43.358;1.248;2024-02-28T00:38:14;6.82;;;2.70;;
51382;SDS011;37475;43.358;1.248;2024-02-28T00:40:41;10.13;;;2.70;;
51382;SDS011;37475;43.358;1.248;2024-02-28T00:43:08;10.90;;;2.97;;
51382;SDS011;37475;43.358;1.248;2024-02-28T00:45:34;9.40;;;3.13;;
51382;SDS011;37475;43.358;1.248;2024-02-28T00:48:01;10.63;;;3.22;;
51382;SDS011;37475;43.358;1.248;2024-02-28T00:50:28;8.40;;;3.00;;
51382;SDS011;37475;43.358;1.248;2024-02-28T00:52:55;10.20;;;2.72;;
51382;SDS011;37475;43.358;1.248;2024-02-28T00:55:23;10.07;;;3.10;;
51382;SDS011;37475;43.358;1.248;2024-02-28T00:57:50;12.35;;;3.15;;
51382;SDS011;37475;43.358;1.248;2024-02-28T01:00:16;11.80;;;3.38;;
51382;SDS011;37475;43.358;1.248;2024-02-28T01:02:43;10.82;;;3.10;;
51382;SDS011;37475;43.358;1.248;2024-02-28T01:05:10;12.48;;;3.40;;
51382;SDS011;37475;43.358;1.248;2024-02-28T01:07:37;9.80;;;3.20;;
51382;SDS011;37475;43.358;1.248;2024-02-28T01:10:04;9.68;;;3.08;;
51382;SDS011;37475;43.358;1.248;2024-02-28T01:12:32;10.82;;;2.95;;
51382;SDS011;37475;43.358;1.248;2024-02-28T01:14:59;8.20;;;2.55;;
51382;SDS011;37475;43.358;1.248;2024-02-28T01:17:26;9.00;;;3.15;;
51382;SDS011;37475;43.358;1.248;2024-02-28T01:19:53;7.40;;;2.90;;
51382;SDS011;37475;43.358;1.248;2024-02-28T01:22:19;12.02;;;3.15;;
51382;SDS011;37475;43.358;1.248;2024-02-28T01:24:46;7.50;;;2.45;;
51382;SDS011;37475;43.358;1.248;2024-02-28T01:27:13;10.52;;;3.00;;
51382;SDS011;37475;43.358;1.248;2024-02-28T01:29:41;10.10;;;3.08;;
51382;SDS011;37475;43.358;1.248;2024-02-28T01:32:08;11.18;;;2.83;;
51382;SDS011;37475;43.358;1.248;2024-02-28T01:34:34;12.35;;;3.13;;
51382;SDS011;37475;43.358;1.248;2024-02-28T01:37:01;9.90;;;3.17;;
51382;SDS011;37475;43.358;1.248;2024-02-28T01:39:28;10.98;;;3.22;;
51382;SDS011;37475;43.358;1.248;2024-02-28T01:41:54;11.52;;;3.15;;
51382;SDS011;37475;43.358;1.248;2024-02-28T01:44:22;11.38;;;3.30;;
51382;SDS011;37475;43.358;1.248;2024-02-28T01:46:50;10.02;;;3.17;;
51382;SDS011;37475;43.358;1.248;2024-02-28T01:49:19;10.90;;;3.00;;
51382;SDS011;37475;43.358;1.248;2024-02-28T01:51:46;13.32;;;3.00;;
51382;SDS011;37475;43.358;1.248;2024-02-28T01:54:13;9.32;;;2.80;;
51382;SDS011;37475;43.358;1.248;2024-02-28T01:56:40;12.02;;;3.10;;
51382;SDS011;37475;43.358;1.248;2024-02-28T01:59:08;10.93;;;2.67;;
51382;SDS011;37475;43.358;1.248;2024-02-28T02:01:36;13.48;;;3.05;;
51382;SDS011;37475;43.358;1.248;2024-02-28T02:04:04;7.97;;;2.92;;
51382;SDS011;37475;43.358;1.248;2024-02-28T02:06:31;10.73;;;2.85;;
51382;SDS011;37475;43.358;1.248;2024-02-28T02:08:59;11.73;;;2.80;;
51382;SDS011;37475;43.358;1.248;2024-02-28T02:11:27;9.90;;;2.90;;
51382;SDS011;37475;43.358;1.248;2024-02-28T02:13:54;11.30;;;3.13;;
51382;SDS011;37475;43.358;1.248;2024-02-28T02:16:21;9.73;;;2.70;;
51382;SDS011;37475;43.358;1.248;2024-02-28T02:18:51;11.45;;;3.03;;
51382;SDS011;37475;43.358;1.248;2024-02-28T02:21:20;8.15;;;2.20;;
51382;SDS011;37475;43.358;1.248;2024-02-28T02:23:51;9.23;;;2.75;;
51382;SDS011;37475;43.358;1.248;2024-02-28T02:26:17;8.50;;;3.17;;
51382;SDS011;37475;43.358;1.248;2024-02-28T02:28:44;7.30;;;2.50;;
51382;SDS011;37475;43.358;1.248;2024-02-28T02:31:11;10.25;;;2.80;;
51382;SDS011;37475;43.358;1.248;2024-02-28T02:33:38;10.60;;;2.30;;
51382;SDS011;37475;43.358;1.248;2024-02-28T02:36:05;10.88;;;2.70;;
51382;SDS011;37475;43.358;1.248;2024-02-28T02:38:32;11.55;;;2.70;;
51382;SDS011;37475;43.358;1.248;2024-02-28T02:41:00;10.10;;;3.08;;
51382;SDS011;37475;43.358;1.248;2024-02-28T02:43:27;9.52;;;2.35;;
51382;SDS011;37475;43.358;1.248;2024-02-28T02:45:54;8.88;;;2.67;;
51382;SDS011;37475;43.358;1.248;2024-02-28T02:48:20;10.30;;;2.60;;
51382;SDS011;37475;43.358;1.248;2024-02-28T02:50:47;12.57;;;3.38;;
51382;SDS011;37475;43.358;1.248;2024-02-28T02:53:14;11.70;;;2.58;;
51382;SDS011;37475;43.358;1.248;2024-02-28T02:55:40;9.75;;;2.45;;
51382;SDS011;37475;43.358;1.248;2024-02-28T02:58:09;10.10;;;2.70;;
51382;SDS011;37475;43.358;1.248;2024-02-28T03:00:35;10.82;;;2.70;;
51382;SDS011;37475;43.358;1.248;2024-02-28T03:03:02;7.95;;;2.20;;
51382;SDS011;37475;43.358;1.248;2024-02-28T03:05:30;7.47;;;2.30;;
51382;SDS011;37475;43.358;1.248;2024-02-28T03:07:57;10.85;;;2.50;;
51382;SDS011;37475;43.358;1.248;2024-02-28T03:10:24;8.85;;;2.10;;
51382;SDS011;37475;43.358;1.248;2024-02-28T03:12:50;10.43;;;2.55;;
51382;SDS011;37475;43.358;1.248;2024-02-28T03:15:18;12.10;;;2.65;;
51382;SDS011;37475;43.358;1.248;2024-02-28T03:17:45;9.93;;;2.63;;
51382;SDS011;37475;43.358;1.248;2024-02-28T03:20:12;8.38;;;2.67;;
51382;SDS011;37475;43.358;1.248;2024-02-28T03:22:39;6.00;;;2.20;;
51382;SDS011;37475;43.358;1.248;2024-02-28T03:25:06;13.63;;;2.90;;
51382;SDS011;37475;43.358;1.248;2024-02-28T03:27:34;9.13;;;2.40;;
51382;SDS011;37475;43.358;1.248;2024-02-28T03:30:01;10.55;;;2.10;;
51382;SDS011;37475;43.358;1.248;2024-02-28T03:32:29;9.05;;;2.05;;
51382;SDS011;37475;43.358;1.248;2024-02-28T03:34:56;11.07;;;2.63;;
51382;SDS011;37475;43.358;1.248;2024-02-28T03:37:23;8.55;;;2.25;;
51382;SDS011;37475;43.358;1.248;2024-02-28T03:39:49;13.10;;;2.58;;
51382;SDS011;37475;43.358;1.248;2024-02-28T03:42:16;6.78;;;2.15;;
51382;SDS011;37475;43.358;1.248;2024-02-28T03:44:43;8.60;;;2.38;;
51382;SDS011;37475;43.358;1.248;2024-02-28T03:47:09;12.20;;;2.80;;
51382;SDS011;37475;43.358;1.248;2024-02-28T03:49:38;12.02;;;3.10;;
51382;SDS011;37475;43.358;1.248;2024-02-28T03:52:04;9.52;;;2.95;;
51382;SDS011;37475;43.358;1.248;2024-02-28T03:54:31;9.95;;;2.42;;
51382;SDS011;37475;43.358;1.248;2024-02-28T03:56:58;12.15;;;2.92;;
51382;SDS011;37475;43.358;1.248;2024-02-28T03:59:25;13.50;;;2.60;;
51382;SDS011;37475;43.358;1.248;2024-02-28T04:01:51;11.50;;;2.65;;
51382;SDS011;37475;43.358;1.248;2024-02-28T04:04:18;8.63;;;2.10;;
51382;SDS011;37475;43.358;1.248;2024-02-28T04:06:46;12.98;;;2.40;;
51382;SDS011;37475;43.358;1.248;2024-02-28T04:09:13;15.52;;;2.45;;
51382;SDS011;37475;43.358;1.248;2024-02-28T04:11:40;12.80;;;2.63;;
51382;SDS011;37475;43.358;1.248;2024-02-28T04:14:08;9.93;;;2.72;;
51382;SDS011;37475;43.358;1.248;2024-02-28T04:16:34;9.15;;;2.63;;
51382;SDS011;37475;43.358;1.248;2024-02-28T04:19:06;7.90;;;2.50;;
51382;SDS011;37475;43.358;1.248;2024-02-28T04:21:33;10.45;;;2.65;;
51382;SDS011;37475;43.358;1.248;2024-02-28T04:24:01;7.75;;;2.58;;
51382;SDS011;37475;43.358;1.248;2024-02-28T04:26:28;9.43;;;2.33;;
51382;SDS011;37475;43.358;1.248;2024-02-28T04:28:55;8.65;;;2.70;;
51382;SDS011;37475;43.358;1.248;2024-02-28T04:31:22;8.90;;;2.38;;
51382;SDS011;37475;43.358;1.248;2024-02-28T04:33:48;8.30;;;2.53;;
51382;SDS011;37475;43.358;1.248;2024-02-28T04:36:15;7.20;;;2.35;;
51382;SDS011;37475;43.358;1.248;2024-02-28T04:38:42;7.88;;;2.17;;
51382;SDS011;37475;43.358;1.248;2024-02-28T04:41:10;9.32;;;2.40;;
51382;SDS011;37475;43.358;1.248;2024-02-28T04:43:36;10.05;;;2.50;;
51382;SDS011;37475;43.358;1.248;2024-02-28T04:46:03;13.07;;;2.90;;
51382;SDS011;37475;43.358;1.248;2024-02-28T04:48:30;7.97;;;2.40;;
51382;SDS011;37475;43.358;1.248;2024-02-28T04:50:59;9.40;;;2.20;;
51382;SDS011;37475;43.358;1.248;2024-02-28T04:53:26;8.90;;;2.50;;
51382;SDS011;37475;43.358;1.248;2024-02-28T04:55:53;10.43;;;2.55;;
51382;SDS011;37475;43.358;1.248;2024-02-28T04:58:21;7.65;;;2.50;;
51382;SDS011;37475;43.358;1.248;2024-02-28T05:00:47;12.70;;;2.70;;
51382;SDS011;37475;43.358;1.248;2024-02-28T05:03:15;9.57;;;2.38;;
51382;SDS011;37475;43.358;1.248;2024-02-28T05:05:42;10.02;;;2.85;;
51382;SDS011;37475;43.358;1.248;2024-02-28T05:08:08;10.45;;;3.00;;
51382;SDS011;37475;43.358;1.248;2024-02-28T05:10:35;7.70;;;2.40;;
51382;SDS011;37475;43.358;1.248;2024-02-28T05:13:02;8.35;;;2.50;;
51382;SDS011;37475;43.358;1.248;2024-02-28T05:15:30;7.88;;;2.22;;
51382;SDS011;37475;43.358;1.248;2024-02-28T05:17:57;5.97;;;2.13;;
51382;SDS011;37475;43.358;1.248;2024-02-28T05:20:23;9.95;;;2.58;;
51382;SDS011;37475;43.358;1.248;2024-02-28T05:22:50;6.68;;;2.50;;
51382;SDS011;37475;43.358;1.248;2024-02-28T05:25:17;8.30;;;2.97;;
51382;SDS011;37475;43.358;1.248;2024-02-28T05:27:44;8.50;;;2.78;;
51382;SDS011;37475;43.358;1.248;2024-02-28T05:30:10;5.95;;;2.20;;
51382;SDS011;37475;43.358;1.248;2024-02-28T05:32:39;10.50;;;2.45;;
51382;SDS011;37475;43.358;1.248;2024-02-28T05:35:06;9.48;;;2.70;;
51382;SDS011;37475;43.358;1.248;2024-02-28T05:37:36;9.15;;;2.78;;
51382;SDS011;37475;43.358;1.248;2024-02-28T05:40:03;9.63;;;2.50;;
51382;SDS011;37475;43.358;1.248;2024-02-28T05:42:32;7.88;;;2.55;;
51382;SDS011;37475;43.358;1.248;2024-02-28T05:44:59;7.65;;;2.40;;
51382;SDS011;37475;43.358;1.248;2024-02-28T05:47:26;5.97;;;2.35;;
51382;SDS011;37475;43.358;1.248;2024-02-28T05:49:55;9.25;;;2.45;;
51382;SDS011;37475;43.358;1.248;2024-02-28T05:52:23;8.02;;;2.67;;
51382;SDS011;37475;43.358;1.248;2024-02-28T05:54:50;9.15;;;2.50;;
51382;SDS011;37475;43.358;1.248;2024-02-28T05:57:16;8.38;;;2.15;;
51382;SDS011;37475;43.358;1.248;2024-02-28T05:59:43;11.80;;;2.63;;
51382;SDS011;37475;43.358;1.248;2024-02-28T06:02:10;10.20;;;2.33;;
51382;SDS011;37475;43.358;1.248;2024-02-28T06:04:37;9.80;;;2.47;;
51382;SDS011;37475;43.358;1.248;2024-02-28T06:07:05;9.38;;;2.70;;
51382;SDS011;37475;43.358;1.248;2024-02-28T06:09:32;6.25;;;2.55;;
51382;SDS011;37475;43.358;1.248;2024-02-28T06:11:59;8.18;;;2.60;;
51382;SDS011;37475;43.358;1.248;2024-02-28T06:14:26;7.47;;;2.50;;
51382;SDS011;37475;43.358;1.248;2024-02-28T06:16:53;7.93;;;2.45;;
51382;SDS011;37475;43.358;1.248;2024-02-28T06:19:20;7.03;;;2.22;;
51382;SDS011;37475;43.358;1.248;2024-02-28T06:21:47;6.68;;;2.30;;
51382;SDS011;37475;43.358;1.248;2024-02-28T06:24:15;7.55;;;2.03;;
51382;SDS011;37475;43.358;1.248;2024-02-28T06:26:40;5.55;;;2.28;;
51382;SDS011;37475;43.358;1.248;2024-02-28T06:29:08;9.30;;;2.58;;
51382;SDS011;37475;43.358;1.248;2024-02-28T06:31:35;9.43;;;2.42;;
51382;SDS011;37475;43.358;1.248;2024-02-28T06:34:02;7.38;;;2.45;;
51382;SDS011;37475;43.358;1.248;2024-02-28T06:36:29;7.22;;;2.28;;
51382;SDS011;37475;43.358;1.248;2024-02-28T06:38:56;7.05;;;2.95;;
51382;SDS011;37475;43.358;1.248;2024-02-28T06:41:24;9.32;;;2.30;;
51382;SDS011;37475;43.358;1.248;2024-02-28T06:43:50;6.05;;;2.22;;
51382;SDS011;37475;43.358;1.248;2024-02-28T06:46:17;6.68;;;2.15;;
51382;SDS011;37475;43.358;1.248;2024-02-28T06:48:44;7.47;;;2.40;;
51382;SDS011;37475;43.358;1.248;2024-02-28T06:51:10;6.78;;;2.30;;
51382;SDS011;37475;43.358;1.248;2024-02-28T06:53:37;8.45;;;2.17;;
51382;SDS011;37475;43.358;1.248;2024-02-28T06:56:04;7.63;;;1.67;;
51382;SDS011;37475;43.358;1.248;2024-02-28T06:58:32;6.55;;;2.13;;
51382;SDS011;37475;43.358;1.248;2024-02-28T07:00:59;8.80;;;2.55;;
51382;SDS011;37475;43.358;1.248;2024-02-28T07:03:26;10.73;;;2.90;;
51382;SDS011;37475;43.358;1.248;2024-02-28T07:05:53;7.07;;;2.28;;
51382;SDS011;37475;43.358;1.248;2024-02-28T07:08:20;9.23;;;2.15;;
51382;SDS011;37475;43.358;1.248;2024-02-28T07:10:47;10.02;;;2.88;;
51382;SDS011;37475;43.358;1.248;2024-02-28T07:13:18;8.25;;;2.67;;
51382;SDS011;37475;43.358;1.248;2024-02-28T07:15:46;11.55;;;2.78;;
51382;SDS011;37475;43.358;1.248;2024-02-28T07:18:14;7.80;;;2.63;;
51382;SDS011;37475;43.358;1.248;2024-02-28T07:20:40;11.05;;;3.38;;
51382;SDS011;37475;43.358;1.248;2024-02-28T07:23:07;7.55;;;2.60;;
51382;SDS011;37475;43.358;1.248;2024-02-28T07:25:34;14.45;;;3.20;;
51382;SDS011;37475;43.358;1.248;2024-02-28T07:28:01;9.18;;;2.38;;
51382;SDS011;37475;43.358;1.248;2024-02-28T07:30:28;9.02;;;2.90;;
51382;SDS011;37475;43.358;1.248;2024-02-28T07:32:56;7.05;;;2.45;;
51382;SDS011;37475;43.358;1.248;2024-02-28T07:35:23;6.75;;;2.10;;
51382;SDS011;37475;43.358;1.248;2024-02-28T07:37:50;9.27;;;2.45;;
51382;SDS011;37475;43.358;1.248;2024-02-28T07:40:17;10.38;;;2.80;;
51382;SDS011;37475;43.358;1.248;2024-02-28T07:42:43;7.22;;;2.63;;
51382;SDS011;37475;43.358;1.248;2024-02-28T07:45:10;8.80;;;2.70;;
51382;SDS011;37475;43.358;1.248;2024-02-28T07:47:37;7.43;;;2.10;;
51382;SDS011;37475;43.358;1.248;2024-02-28T07:50:07;9.80;;;2.50;;
51382;SDS011;37475;43.358;1.248;2024-02-28T07:52:33;8.02;;;2.03;;
51382;SDS011;37475;43.358;1.248;2024-02-28T07:55:02;11.55;;;2.22;;
51382;SDS011;37475;43.358;1.248;2024-02-28T07:57:30;5.88;;;1.90;;
51382;SDS011;37475;43.358;1.248;2024-02-28T07:59:58;7.63;;;2.00;;
51382;SDS011;37475;43.358;1.248;2024-02-28T08:02:25;9.52;;;2.30;;
51382;SDS011;37475;43.358;1.248;2024-02-28T08:04:51;7.75;;;2.20;;
51382;SDS011;37475;43.358;1.248;2024-02-28T08:07:19;5.28;;;2.00;;
51382;SDS011;37475;43.358;1.248;2024-02-28T08:09:46;8.77;;;1.85;;
51382;SDS011;37475;43.358;1.248;2024-02-28T08:12:13;7.57;;;2.00;;
51382;SDS011;37475;43.358;1.248;2024-02-28T08:14:39;6.70;;;2.10;;
51382;SDS011;37475;43.358;1.248;2024-02-28T08:17:06;6.72;;;1.70;;
51382;SDS011;37475;43.358;1.248;2024-02-28T08:19:33;4.82;;;1.65;;
51382;SDS011;37475;43.358;1.248;2024-02-28T08:22:00;8.38;;;2.00;;
51382;SDS011;37475;43.358;1.248;2024-02-28T08:24:28;7.97;;;2.05;;
51382;SDS011;37475;43.358;1.248;2024-02-28T08:26:55;9.93;;;2.20;;
51382;SDS011;37475;43.358;1.248;2024-02-28T08:29:21;5.07;;;1.42;;
51382;SDS011;37475;43.358;1.248;2024-02-28T08:31:48;4.35;;;1.52;;
51382;SDS011;37475;43.358;1.248;2024-02-28T08:34:15;7.68;;;1.73;;
51382;SDS011;37475;43.358;1.248;2024-02-28T08:36:42;5.40;;;1.40;;
51382;SDS011;37475;43.358;1.248;2024-02-28T08:39:09;9.77;;;2.00;;
51382;SDS011;37475;43.358;1.248;2024-02-28T08:41:37;5.63;;;1.70;;
51382;SDS011;37475;43.358;1.248;2024-02-28T08:44:04;4.15;;;1.40;;
51382;SDS011;37475;43.358;1.248;2024-02-28T08:46:31;8.15;;;1.73;;
51382;SDS011;37475;43.358;1.248;2024-02-28T08:48:57;5.85;;;1.42;;
51382;SDS011;37475;43.358;1.248;2024-02-28T08:51:24;7.30;;;2.05;;
51382;SDS011;37475;43.358;1.248;2024-02-28T08:53:52;4.20;;;1.60;;
51382;SDS011;37475;43.358;1.248;2024-02-28T08:56:20;9.20;;;1.77;;
51382;SDS011;37475;43.358;1.248;2024-02-28T08:58:48;5.55;;;1.58;;
51382;SDS011;37475;43.358;1.248;2024-02-28T09:01:15;7.20;;;1.90;;
51382;SDS011;37475;43.358;1.248;2024-02-28T09:03:42;5.88;;;1.63;;
51382;SDS011;37475;43.358;1.248;2024-02-28T09:06:08;5.90;;;1.60;;
51382;SDS011;37475;43.358;1.248;2024-02-28T09:08:35;6.35;;;1.67;;
51382;SDS011;37475;43.358;1.248;2024-02-28T09:11:02;6.65;;;1.73;;
51382;SDS011;37475;43.358;1.248;2024-02-28T09:13:30;5.32;;;1.88;;
51382;SDS011;37475;43.358;1.248;2024-02-28T09:15:58;5.10;;;1.67;;
51382;SDS011;37475;43.358;1.248;2024-02-28T09:18:25;3.80;;;1.42;;
51382;SDS011;37475;43.358;1.248;2024-02-28T09:20:51;8.02;;;1.63;;
51382;SDS011;37475;43.358;1.248;2024-02-28T09:23:18;4.68;;;1.65;;
51382;SDS011;37475;43.358;1.248;2024-02-28T09:25:45;6.85;;;1.60;;
51382;SDS011;37475;43.358;1.248;2024-02-28T09:28:11;3.33;;;1.35;;
51382;SDS011;37475;43.358;1.248;2024-02-28T09:30:41;6.05;;;1.60;;
51382;SDS011;37475;43.358;1.248;2024-02-28T09:33:09;8.82;;;1.52;;
51382;SDS011;37475;43.358;1.248;2024-02-28T09:35:36;9.18;;;1.63;;
51382;SDS011;37475;43.358;1.248;2024-02-28T09:38:02;9.35;;;1.45;;
51382;SDS011;37475;43.358;1.248;2024-02-28T09:40:30;9.07;;;1.55;;
51382;SDS011;37475;43.358;1.248;2024-02-28T09:42:59;7.10;;;1.52;;
51382;SDS011;37475;43.358;1.248;2024-02-28T09:45:27;6.43;;;1.90;;
51382;SDS011;37475;43.358;1.248;2024-02-28T09:47:55;7.25;;;1.90;;
51382;SDS011;37475;43.358;1.248;2024-02-28T09:50:24;7.03;;;1.88;;
51382;SDS011;37475;43.358;1.248;2024-02-28T09:52:52;6.38;;;1.50;;
51382;SDS011;37475;43.358;1.248;2024-02-28T09:55:18;2.70;;;1.13;;
51382;SDS011;37475;43.358;1.248;2024-02-28T09:57:46;7.00;;;1.77;;
51382;SDS011;37475;43.358;1.248;2024-02-28T10:00:14;4.25;;;1.50;;
51382;SDS011;37475;43.358;1.248;2024-02-28T10:02:44;3.95;;;1.30;;
51382;SDS011;37475;43.358;1.248;2024-02-28T10:05:13;4.43;;;1.60;;
51382;SDS011;37475;43.358;1.248;2024-02-28T10:07:42;4.70;;;1.38;;
51382;SDS011;37475;43.358;1.248;2024-02-28T10:10:09;6.32;;;1.65;;
51382;SDS011;37475;43.358;1.248;2024-02-28T10:12:34;6.25;;;1.00;;
51382;SDS011;37475;43.358;1.248;2024-02-28T10:15:01;5.03;;;1.30;;
51382;SDS011;37475;43.358;1.248;2024-02-28T10:17:28;5.50;;;1.52;;
51382;SDS011;37475;43.358;1.248;2024-02-28T10:19:54;4.75;;;1.20;;
51382;SDS011;37475;43.358;1.248;2024-02-28T10:22:24;3.58;;;1.20;;
51382;SDS011;37475;43.358;1.248;2024-02-28T10:24:57;5.78;;;1.20;;
51382;SDS011;37475;43.358;1.248;2024-02-28T10:27:24;3.60;;;1.17;;
51382;SDS011;37475;43.358;1.248;2024-02-28T10:29:51;4.78;;;1.30;;
51382;SDS011;37475;43.358;1.248;2024-02-28T10:32:17;5.30;;;1.33;;
51382;SDS011;37475;43.358;1.248;2024-02-28T10:34:44;4.50;;;1.35;;
51382;SDS011;37475;43.358;1.248;2024-02-28T10:37:12;5.80;;;1.20;;
51382;SDS011;37475;43.358;1.248;2024-02-28T10:39:39;4.18;;;1.10;;
51382;SDS011;37475;43.358;1.248;2024-02-28T10:42:10;2.47;;;1.00;;
51382;SDS011;37475;43.358;1.248;2024-02-28T10:44:38;4.55;;;1.27;;
51382;SDS011;37475;43.358;1.248;2024-02-28T10:47:07;4.25;;;1.33;;
51382;SDS011;37475;43.358;1.248;2024-02-28T10:49:34;3.47;;;1.10;;
51382;SDS011;37475;43.358;1.248;2024-02-28T10:52:01;5.38;;;1.65;;
51382;SDS011;37475;43.358;1.248;2024-02-28T10:54:30;4.95;;;1.30;;
51382;SDS011;37475;43.358;1.248;2024-02-28T10:56:59;5.05;;;1.33;;
51382;SDS011;37475;43.358;1.248;2024-02-28T10:59:28;3.55;;;0.90;;
51382;SDS011;37475;43.358;1.248;2024-02-28T11:01:58;3.08;;;1.02;;
51382;SDS011;37475;43.358;1.248;2024-02-28T11:04:24;2.42;;;1.10;;
51382;SDS011;37475;43.358;1.248;2024-02-28T11:06:53;2.72;;;0.90;;
51382;SDS011;37475;43.358;1.248;2024-02-28T11:09:21;2.45;;;0.80;;
51382;SDS011;37475;43.358;1.248;2024-02-28T11:11:49;4.72;;;1.33;;
51382;SDS011;37475;43.358;1.248;2024-02-28T11:14:16;2.38;;;1.00;;
51382;SDS011;37475;43.358;1.248;2024-02-28T11:16:48;4.00;;;1.02;;
51382;SDS011;37475;43.358;1.248;2024-02-28T11:19:25;2.63;;;0.90;;
51382;SDS011;37475;43.358;1.248;2024-02-28T11:21:54;5.38;;;1.00;;
51382;SDS011;37475;43.358;1.248;2024-02-28T11:24:22;3.45;;;1.02;;
51382;SDS011;37475;43.358;1.248;2024-02-28T11:26:50;3.88;;;1.10;;
51382;SDS011;37475;43.358;1.248;2024-02-28T11:29:16;2.58;;;1.10;;
51382;SDS011;37475;43.358;1.248;2024-02-28T11:31:49;3.03;;;1.00;;
51382;SDS011;37475;43.358;1.248;2024-02-28T11:34:16;2.10;;;0.82;;
51382;SDS011;37475;43.358;1.248;2024-02-28T11:36:43;3.13;;;0.90;;
51382;SDS011;37475;43.358;1.248;2024-02-28T11:39:12;5.78;;;1.23;;
51382;SDS011;37475;43.358;1.248;2024-02-28T11:41:39;4.70;;;1.20;;
51382;SDS011;37475;43.358;1.248;2024-02-28T11:44:06;3.20;;;1.00;;
51382;SDS011;37475;43.358;1.248;2024-02-28T11:46:33;2.90;;;1.00;;
51382;SDS011;37475;43.358;1.248;2024-02-28T11:49:01;2.47;;;0.90;;
51382;SDS011;37475;43.358;1.248;2024-02-28T11:51:30;3.15;;;1.15;;
51382;SDS011;37475;43.358;1.248;2024-02-28T11:53:57;4.25;;;1.10;;
51382;SDS011;37475;43.358;1.248;2024-02-28T11:56:27;1.42;;;0.70;;
51382;SDS011;37475;43.358;1.248;2024-02-28T11:58:54;3.75;;;0.90;;
51382;SDS011;37475;43.358;1.248;2024-02-28T12:01:32;2.55;;;0.70;;
51382;SDS011;37475;43.358;1.248;2024-02-28T12:04:04;2.50;;;0.80;;
51382;SDS011;37475;43.358;1.248;2024-02-28T12:06:31;2.30;;;0.70;;
51382;SDS011;37475;43.358;1.248;2024-02-28T12:08:59;1.73;;;0.70;;
51382;SDS011;37475;43.358;1.248;2024-02-28T12:11:26;2.28;;;0.82;;
51382;SDS011;37475;43.358;1.248;2024-02-28T12:13:54;2.72;;;0.90;;
51382;SDS011;37475;43.358;1.248;2024-02-28T12:16:22;2.83;;;1.00;;
51382;SDS011;37475;43.358;1.248;2024-02-28T12:18:49;3.00;;;0.88;;
51382;SDS011;37475;43.358;1.248;2024-02-28T12:21:17;4.07;;;0.82;;
51382;SDS011;37475;43.358;1.248;2024-02-28T12:23:44;2.72;;;0.80;;
51382;SDS011;37475;43.358;1.248;2024-02-28T12:26:11;5.35;;;1.00;;
51382;SDS011;37475;43.358;1.248;2024-02-28T12:28:37;0.82;;;0.60;;
51382;SDS011;37475;43.358;1.248;2024-02-28T12:31:04;2.38;;;0.80;;
51382;SDS011;37475;43.358;1.248;2024-02-28T12:33:34;1.50;;;0.60;;
51382;SDS011;37475;43.358;1.248;2024-02-28T12:36:00;1.73;;;0.63;;
51382;SDS011;37475;43.358;1.248;2024-02-28T12:38:31;2.75;;;0.80;;
51382;SDS011;37475;43.358;1.248;2024-02-28T12:40:57;2.05;;;0.82;;
51382;SDS011;37475;43.358;1.248;2024-02-28T12:43:24;3.15;;;0.90;;
51382;SDS011;37475;43.358;1.248;2024-02-28T12:45:51;0.90;;;0.60;;
51382;SDS011;37475;43.358;1.248;2024-02-28T12:48:18;2.75;;;0.70;;
51382;SDS011;37475;43.358;1.248;2024-02-28T12:50:44;1.38;;;0.60;;
51382;SDS011;37475;43.358;1.248;2024-02-28T12:53:11;2.00;;;0.63;;
51382;SDS011;37475;43.358;1.248;2024-02-28T12:55:40;1.20;;;0.50;;
51382;SDS011;37475;43.358;1.248;2024-02-28T12:58:09;2.35;;;0.70;;
51382;SDS011;37475;43.358;1.248;2024-02-28T13:00:36;1.20;;;0.60;;
51382;SDS011;37475;43.358;1.248;2024-02-28T13:03:03;1.38;;;0.70;;
51382;SDS011;37475;43.358;1.248;2024-02-28T13:05:32;1.60;;;0.65;;
51382;SDS011;37475;43.358;1.248;2024-02-28T13:07:59;3.92;;;0.80;;
51382;SDS011;37475;43.358;1.248;2024-02-28T13:10:25;2.10;;;0.52;;
51382;SDS011;37475;43.358;1.248;2024-02-28T13:12:53;0.55;;;0.40;;
51382;SDS011;37475;43.358;1.248;2024-02-28T13:15:20;2.80;;;0.77;;
51382;SDS011;37475;43.358;1.248;2024-02-28T13:17:47;2.28;;;0.70;;
51382;SDS011;37475;43.358;1.248;2024-02-28T13:20:14;1.75;;;0.70;;
51382;SDS011;37475;43.358;1.248;2024-02-28T13:22:41;1.33;;;0.60;;
51382;SDS011;37475;43.358;1.248;2024-02-28T13:25:08;2.05;;;0.73;;
51382;SDS011;37475;43.358;1.248;2024-02-28T13:27:35;2.70;;;0.80;;
51382;SDS011;37475;43.358;1.248;2024-02-28T13:30:04;2.33;;;0.90;;
51382;SDS011;37475;43.358;1.248;2024-02-28T13:32:32;1.73;;;0.70;;
51382;SDS011;37475;43.358;1.248;2024-02-28T13:34:59;3.05;;;0.70;;
51382;SDS011;37475;43.358;1.248;2024-02-28T13:37:26;1.73;;;0.70;;
51382;SDS011;37475;43.358;1.248;2024-02-28T13:39:53;3.67;;;0.70;;
51382;SDS011;37475;43.358;1.248;2024-02-28T13:42:19;1.58;;;0.60;;
51382;SDS011;37475;43.358;1.248;2024-02-28T13:44:46;1.15;;;0.55;;
51382;SDS011;37475;43.358;1.248;2024-02-28T13:47:14;2.10;;;0.80;;
51382;SDS011;37475;43.358;1.248;2024-02-28T13:49:41;1.85;;;0.73;;
51382;SDS011;37475;43.358;1.248;2024-02-28T13:52:08;0.75;;;0.43;;
51382;SDS011;37475;43.358;1.248;2024-02-28T13:54:35;2.53;;;0.80;;
51382;SDS011;37475;43.358;1.248;2024-02-28T13:57:02;5.25;;;1.13;;
51382;SDS011;37475;43.358;1.248;2024-02-28T13:59:29;2.28;;;0.73;;
51382;SDS011;37475;43.358;1.248;2024-02-28T14:01:56;4.28;;;0.70;;
51382;SDS011;37475;43.358;1.248;2024-02-28T14:04:26;2.85;;;0.82;;
51382;SDS011;37475;43.358;1.248;2024-02-28T14:06:52;1.05;;;0.40;;
51382;SDS011;37475;43.358;1.248;2024-02-28T14:09:19;1.33;;;0.60;;
51382;SDS011;37475;43.358;1.248;2024-02-28T14:11:46;1.48;;;0.70;;
51382;SDS011;37475;43.358;1.248;2024-02-28T14:14:12;0.90;;;0.52;;
51382;SDS011;37475;43.358;1.248;2024-02-28T14:16:40;1.58;;;0.50;;
51382;SDS011;37475;43.358;1.248;2024-02-28T14:19:07;1.55;;;0.50;;
51382;SDS011;37475;43.358;1.248;2024-02-28T14:21:35;1.58;;;0.60;;
51382;SDS011;37475;43.358;1.248;2024-02-28T14:24:02;1.35;;;0.70;;
51382;SDS011;37475;43.358;1.248;2024-02-28T14:26:29;3.13;;;0.70;;
51382;SDS011;37475;43.358;1.248;2024-02-28T14:28:56;1.92;;;0.60;;
51382;SDS011;37475;43.358;1.248;2024-02-28T14:31:22;0.93;;;0.50;;
51382;SDS011;37475;43.358;1.248;2024-02-28T14:33:49;1.73;;;0.60;;
51382;SDS011;37475;43.358;1.248;2024-02-28T14:36:16;1.95;;;0.70;;
51382;SDS011;37475;43.358;1.248;2024-02-28T14:38:46;0.95;;;0.57;;
51382;SDS011;37475;43.358;1.248;2024-02-28T14:41:13;1.33;;;0.50;;
51382;SDS011;37475;43.358;1.248;2024-02-28T14:43:40;3.25;;;0.70;;
51382;SDS011;37475;43.358;1.248;2024-02-28T14:46:07;1.52;;;0.60;;